Santa Claus, Indiana
Current Conditions -  °F | °C
As of 7:15 PM on Sunday 23 Nov 2014 (Local Time) from KHNB Reporting Station
Overcast Overcast  
Wind Chill: 57°   Ceiling: 1400
Heat Index: 57°   Visibility: 10mi
Dew Point: 54°   Wind: 17mph
Humidity: 88%   Direction: 160°SSE
Pressure: 29.28"   Gusts: 24mph
Location:  38.12°N, 86.91°W
Report Text: KHNB 240115Z AUTO 16015G21KT 10SM BKN014 OVC019 14/12 A2928 RMK AO1
Loading
Personal Weather Stations






























Interactive Weather Map New forecast layout! Learn more

10-Day Weather Forecast

Advertisements
Track Severe Weather on mobile